Time;durP1;ratioP1;P1;durP2;ratioP2;P2;SDS_P1;SDS_P2;PMS_P1;PMS_P2;Temp;Humidity;BMP_temperature;BMP_pressure;BME280_temperature;BME280_humidity;BME280_pressure;Samples;Min_cycle;Max_cycle;Signal;HPM_P1;HPM_P2
2022/11/17 00:01:23;;;;;;;;;;;13.50;99.90;;;;;;5045832;28;19923;-70
2022/11/17 00:04:01;;;;;;;;;;;13.40;99.90;;;;;;5083916;28;20119;-69
2022/11/17 00:06:28;;;;;;;;;;;13.40;99.90;;;;;;5077830;28;19923;-70
2022/11/17 00:08:54;;;;;;;;;;;13.30;99.90;;;;;;5061353;28;19912;-70
2022/11/17 00:11:19;;;;;;;;;;;13.30;99.90;;;;;;5073973;28;19922;-70
2022/11/17 00:16:30;;;;;;;;;;;13.10;99.90;;;;;;5082773;28;20409;-70
2022/11/17 00:21:39;;;;;;;;;;;13.10;99.90;;;;;;5080938;28;19919;-70
2022/11/17 00:24:05;;;;;;;;;;;13.20;99.90;;;;;;5074284;28;19909;-70
2022/11/17 00:27:00;;;;;;;;;;;13.20;99.90;;;;;;5082131;28;19988;-70
2022/11/17 00:29:23;;;;;;;;;;;13.10;99.90;;;;;;5081315;28;19917;-70
2022/11/17 00:34:34;;;;;;;;;;;13.20;99.90;;;;;;5083094;28;19919;-70
2022/11/17 00:37:05;;;;;;;;;;;13.20;99.90;;;;;;5064602;28;19951;-70
2022/11/17 00:39:35;;;;;;;;;;;13.20;99.90;;;;;;5078304;28;19994;-70
2022/11/17 00:42:01;;;;;;;;;;;13.10;99.90;;;;;;5077041;28;20369;-70
2022/11/17 00:44:27;;;;;;;;;;;13.10;99.90;;;;;;5069535;28;19972;-70
2022/11/17 00:46:52;;;;;;;;;;;13.10;99.90;;;;;;5086067;28;19952;-70
2022/11/17 00:49:24;;;;;;;;;;;13.00;99.90;;;;;;5076227;28;19924;-70
2022/11/17 00:51:50;;;;;;;;;;;13.10;99.90;;;;;;5054545;28;19917;-70
2022/11/17 00:54:16;;;;;;;;;;;13.10;99.90;;;;;;5055666;28;20007;-70
2022/11/17 00:56:44;;;;;;;;;;;13.10;99.90;;;;;;5072147;28;19936;-70
2022/11/17 00:59:10;;;;;;;;;;;13.10;99.90;;;;;;5081249;28;20442;-70
2022/11/17 01:01:36;;;;;;;;;;;13.10;99.90;;;;;;5093138;28;19912;-70
2022/11/17 01:38:27;;;;;;;;;;;13.00;99.90;;;;;;5072332;28;20089;-70
2022/11/17 01:41:11;;;;;;;;;;;13.10;99.90;;;;;;5057831;28;19939;-70
2022/11/17 01:43:56;;;;;;;;;;;13.10;99.90;;;;;;5077562;28;19970;-70
2022/11/17 01:46:44;;;;;;;;;;;13.10;99.90;;;;;;5085483;28;19916;-70
2022/11/17 01:49:28;;;;;;;;;;;13.10;99.90;;;;;;5061102;28;19928;-70
2022/11/17 01:52:35;;;;;;;;;;;13.10;99.90;;;;;;5077309;28;19974;-70
2022/11/17 01:55:12;;;;;;;;;;;13.00;99.90;;;;;;5045908;28;19936;-70
2022/11/17 01:57:49;;;;;;;;;;;13.10;99.90;;;;;;5086331;28;19935;-70
2022/11/17 02:00:24;;;;;;;;;;;13.00;99.90;;;;;;5061423;28;19912;-70
2022/11/17 02:03:09;;;;;;;;;;;13.00;99.90;;;;;;5062130;28;20751;-70
2022/11/17 02:05:55;;;;;;;;;;;;;;;;;;;;;
2022/11/17 02:11:36;;;;;;;;;;;13.00;99.90;;;;;;5069906;28;19979;-70
2022/11/17 02:14:08;;;;;;;;;;;12.90;99.90;;;;;;5074035;28;19912;-70
2022/11/17 02:16:33;;;;;;;;;;;12.90;99.90;;;;;;5082961;28;19927;-70
2022/11/17 02:18:59;;;;;;;;;;;12.90;99.90;;;;;;5077559;28;19921;-70
2022/11/17 02:21:49;;;;;;;;;;;12.90;99.90;;;;;;5075859;28;20386;-70
2022/11/17 02:24:39;;;;;;;;;;;12.90;99.90;;;;;;5076447;28;19958;-70
2022/11/17 02:27:17;;;;;;;;;;;13.00;99.90;;;;;;5089293;28;19943;-70
2022/11/17 02:29:57;;;;;;;;;;;13.10;99.90;;;;;;5068993;28;19916;-70
2022/11/17 02:32:29;;;;;;;;;;;13.10;99.90;;;;;;5078485;28;20516;-70
2022/11/17 02:35:14;;;;;;;;;;;13.20;99.90;;;;;;5084130;28;19913;-70
2022/11/17 02:37:58;;;;;;;;;;;13.10;99.90;;;;;;5088995;28;19916;-70
2022/11/17 02:40:36;;;;;;;;;;;13.10;99.90;;;;;;5072496;28;19913;-70
2022/11/17 02:45:57;;;;;;;;;;;13.20;99.90;;;;;;5077499;28;19923;-70
2022/11/17 02:48:28;;;;;;;;;;;13.30;99.90;;;;;;5095759;28;19985;-70
2022/11/17 02:50:55;;;;;;;;;;;13.30;99.90;;;;;;5076362;28;19913;-70
2022/11/17 02:53:28;;;;;;;;;;;13.30;99.90;;;;;;5079062;28;19919;-70
2022/11/17 02:55:54;;;;;;;;;;;13.30;99.90;;;;;;5084518;28;20831;-70
2022/11/17 02:58:23;;;;;;;;;;;13.20;99.90;;;;;;5076081;28;19921;-70
2022/11/17 03:01:06;;;;;;;;;;;13.20;99.90;;;;;;5085473;28;19961;-70
2022/11/17 03:03:42;;;;;;;;;;;13.10;99.90;;;;;;5085524;28;19912;-70
2022/11/17 03:06:11;;;;;;;;;;;13.20;99.90;;;;;;5083362;28;20333;-70
2022/11/17 03:08:57;;;;;;;;;;;13.10;99.90;;;;;;5085808;28;20329;-70
2022/11/17 03:11:28;;;;;;;;;;;13.20;99.90;;;;;;5081999;28;20021;-70
2022/11/17 03:14:14;;;;;;;;;;;13.30;99.90;;;;;;5084096;28;19955;-70
2022/11/17 03:17:00;;;;;;;;;;;13.30;99.90;;;;;;5083941;28;20153;-70
2022/11/17 03:19:40;;;;;;;;;;;13.30;99.90;;;;;;5087360;28;19913;-70
2022/11/17 03:22:12;;;;;;;;;;;13.30;99.90;;;;;;5089795;28;19954;-70
2022/11/17 03:24:40;;;;;;;;;;;13.30;99.90;;;;;;5087768;28;19909;-70
2022/11/17 03:27:08;;;;;;;;;;;13.40;99.90;;;;;;5064300;28;19927;-70
2022/11/17 03:29:36;;;;;;;;;;;13.40;99.90;;;;;;5061661;28;19920;-70
2022/11/17 03:32:06;;;;;;;;;;;13.40;99.90;;;;;;5081692;28;20337;-70
2022/11/17 03:34:37;;;;;;;;;;;13.60;99.90;;;;;;5070349;28;20389;-70
2022/11/17 03:37:04;;;;;;;;;;;13.60;99.90;;;;;;5064616;28;19924;-70
2022/11/17 03:39:34;;;;;;;;;;;13.60;99.90;;;;;;5075049;28;19944;-70
2022/11/17 03:42:03;;;;;;;;;;;13.60;99.90;;;;;;5074568;28;20858;-70
2022/11/17 03:44:31;;;;;;;;;;;13.60;99.90;;;;;;5083230;28;20355;-70
2022/11/17 03:46:58;;;;;;;;;;;13.60;99.90;;;;;;5073805;28;20023;-70
2022/11/17 03:49:46;;;;;;;;;;;13.50;99.90;;;;;;5074100;28;19917;-70
2022/11/17 03:52:12;;;;;;;;;;;13.50;99.90;;;;;;5080561;28;20011;-70
2022/11/17 03:54:49;;;;;;;;;;;13.40;99.90;;;;;;5083284;28;19943;-70
2022/11/17 03:57:21;;;;;;;;;;;13.40;99.90;;;;;;5073889;28;19920;-70
2022/11/17 03:59:52;;;;;;;;;;;13.40;99.90;;;;;;5055182;28;19916;-70
2022/11/17 04:02:19;;;;;;;;;;;13.40;99.90;;;;;;5075216;28;19912;-70
2022/11/17 04:05:13;;;;;;;;;;;13.40;99.90;;;;;;5071989;28;19917;-70
2022/11/17 04:07:56;;;;;;;;;;;13.50;99.90;;;;;;5093981;28;19920;-70
2022/11/17 04:16:47;;;;;;;;;;;13.30;99.90;;;;;;5083849;28;20451;-70
2022/11/17 04:19:13;;;;;;;;;;;13.20;99.90;;;;;;5081735;28;19917;-70
2022/11/17 04:21:38;;;;;;;;;;;13.20;99.90;;;;;;5074962;28;19927;-70
2022/11/17 04:24:04;;;;;;;;;;;13.30;99.90;;;;;;5091776;28;19916;-70
2022/11/17 04:29:17;;;;;;;;;;;13.30;99.90;;;;;;5077577;28;19942;-70
2022/11/17 04:31:43;;;;;;;;;;;13.20;99.90;;;;;;5070879;28;19920;-71
2022/11/17 04:34:09;;;;;;;;;;;13.20;99.90;;;;;;5079605;28;19909;-71
2022/11/17 04:36:44;;;;;;;;;;;13.20;99.90;;;;;;5080458;28;19912;-70
2022/11/17 04:39:24;;;;;;;;;;;13.20;99.90;;;;;;5088491;28;19974;-70
2022/11/17 04:42:03;;;;;;;;;;;13.20;99.90;;;;;;5088902;28;19917;-70
2022/11/17 04:44:52;;;;;;;;;;;13.20;99.90;;;;;;5061963;28;20251;-70
2022/11/17 04:47:59;;;;;;;;;;;13.10;99.90;;;;;;5056616;28;19920;-70
2022/11/17 04:50:41;;;;;;;;;;;13.10;99.90;;;;;;5008950;28;19916;-70
2022/11/17 04:53:07;;;;;;;;;;;13.10;99.90;;;;;;5050577;28;19913;-70
2022/11/17 04:55:32;;;;;;;;;;;13.10;99.90;;;;;;5069922;28;19962;-70
2022/11/17 04:57:58;;;;;;;;;;;13.00;99.90;;;;;;5074897;28;19912;-70
2022/11/17 05:00:26;;;;;;;;;;;13.00;99.90;;;;;;5075560;28;20033;-70
2022/11/17 05:02:52;;;;;;;;;;;13.00;99.90;;;;;;5052813;28;20099;-70
2022/11/17 05:05:18;;;;;;;;;;;13.00;99.90;;;;;;5070762;28;19913;-70
2022/11/17 05:07:43;;;;;;;;;;;13.00;99.90;;;;;;5085127;28;20355;-70
2022/11/17 05:10:11;;;;;;;;;;;13.00;99.90;;;;;;5082347;28;19920;-70
2022/11/17 05:17:03;;;;;;;;;;;13.00;99.90;;;;;;5069724;28;19923;-70
2022/11/17 05:18:09;;;;;;;;;;;13.00;99.90;;;;;;5073243;28;19913;-70
2022/11/17 05:20:35;;;;;;;;;;;13.00;99.90;;;;;;5072245;28;19939;-70
2022/11/17 05:25:52;;;;;;;;;;;13.10;99.90;;;;;;5076227;28;20007;-70
2022/11/17 05:28:17;;;;;;;;;;;13.10;99.90;;;;;;5049696;28;19955;-70
2022/11/17 05:30:49;;;;;;;;;;;13.20;99.90;;;;;;5056499;28;20317;-70
2022/11/17 05:33:15;;;;;;;;;;;13.20;99.90;;;;;;5058595;28;19920;-70
2022/11/17 05:35:40;;;;;;;;;;;13.30;99.90;;;;;;5082567;28;19912;-70
2022/11/17 05:38:09;;;;;;;;;;;13.30;99.90;;;;;;5069641;28;19943;-70
2022/11/17 05:40:35;;;;;;;;;;;13.30;99.90;;;;;;5083326;28;19919;-70
2022/11/17 05:43:00;;;;;;;;;;;13.30;99.90;;;;;;5074447;28;19912;-70
2022/11/17 05:45:26;;;;;;;;;;;13.30;99.90;;;;;;5079844;28;19955;-70
2022/11/17 05:47:52;;;;;;;;;;;13.30;99.90;;;;;;5091328;28;19940;-70
2022/11/17 05:50:18;;;;;;;;;;;13.30;99.90;;;;;;5092505;28;19912;-70
2022/11/17 05:52:43;;;;;;;;;;;13.40;99.90;;;;;;5095364;28;19908;-70
2022/11/17 05:55:09;;;;;;;;;;;13.40;99.90;;;;;;5084368;28;19934;-70
2022/11/17 05:57:35;;;;;;;;;;;13.40;99.90;;;;;;5084792;28;19927;-70
2022/11/17 06:00:04;;;;;;;;;;;13.50;99.90;;;;;;5086772;28;19920;-70
2022/11/17 06:02:41;;;;;;;;;;;13.40;99.90;;;;;;5080142;28;20419;-70
2022/11/17 06:05:08;;;;;;;;;;;13.40;99.90;;;;;;5072247;28;20015;-70
2022/11/17 06:07:37;;;;;;;;;;;13.40;99.90;;;;;;5059405;28;19912;-70
2022/11/17 06:10:03;;;;;;;;;;;13.40;99.90;;;;;;5084251;28;19976;-70
2022/11/17 06:12:29;;;;;;;;;;;13.40;99.90;;;;;;5074145;28;19927;-70
2022/11/17 06:14:54;;;;;;;;;;;13.30;99.90;;;;;;5057932;28;19912;-70
2022/11/17 06:17:40;;;;;;;;;;;13.30;99.90;;;;;;5075473;28;19920;-70
2022/11/17 06:20:08;;;;;;;;;;;13.30;99.90;;;;;;5054647;28;19912;-70
2022/11/17 06:22:34;;;;;;;;;;;13.40;99.90;;;;;;5073783;28;19966;-70
2022/11/17 06:25:01;;;;;;;;;;;13.30;99.90;;;;;;5045520;28;20622;-70
2022/11/17 06:27:29;;;;;;;;;;;13.30;99.90;;;;;;5075580;28;19985;-70
2022/11/17 06:29:56;;;;;;;;;;;13.40;99.90;;;;;;5074925;28;19926;-70
2022/11/17 06:32:21;;;;;;;;;;;13.40;99.90;;;;;;5062742;28;20319;-70
2022/11/17 06:35:04;;;;;;;;;;;13.50;99.90;;;;;;5077682;28;19964;-70
2022/11/17 06:38:24;;;;;;;;;;;13.50;99.90;;;;;;5080813;28;19916;-70
2022/11/17 06:40:31;;;;;;;;;;;13.40;99.90;;;;;;5079690;28;19943;-70
2022/11/17 06:43:02;;;;;;;;;;;13.50;99.90;;;;;;5090866;28;19912;-70
2022/11/17 06:45:35;;;;;;;;;;;13.40;99.90;;;;;;5072934;28;19975;-69
2022/11/17 06:48:01;;;;;;;;;;;13.50;99.90;;;;;;5054350;28;19965;-70
2022/11/17 06:50:26;;;;;;;;;;;13.50;99.90;;;;;;5073869;28;19921;-70
2022/11/17 06:52:55;;;;;;;;;;;13.40;99.90;;;;;;5074550;28;19926;-70
2022/11/17 06:55:21;;;;;;;;;;;13.50;99.90;;;;;;5071488;28;19912;-70
2022/11/17 06:57:46;;;;;;;;;;;13.50;99.90;;;;;;5069051;28;19999;-70
2022/11/17 07:00:15;;;;;;;;;;;13.50;99.90;;;;;;5091284;28;19953;-70
2022/11/17 07:02:41;;;;;;;;;;;13.60;99.90;;;;;;5096038;28;20007;-69
2022/11/17 07:05:07;;;;;;;;;;;13.80;99.90;;;;;;5089731;28;19956;-69
2022/11/17 07:07:33;;;;;;;;;;;13.90;99.90;;;;;;5090235;28;19913;-69
2022/11/17 07:09:59;;;;;;;;;;;13.80;99.90;;;;;;5078174;28;19934;-69
2022/11/17 07:12:24;;;;;;;;;;;13.80;99.90;;;;;;5081126;28;19913;-69
2022/11/17 07:14:50;;;;;;;;;;;13.90;99.90;;;;;;5070264;28;19979;-69
2022/11/17 07:17:16;;;;;;;;;;;13.90;99.90;;;;;;5077686;28;19913;-69
2022/11/17 07:19:42;;;;;;;;;;;13.90;99.90;;;;;;5093255;28;19959;-70
2022/11/17 07:22:07;;;;;;;;;;;13.80;99.90;;;;;;5087700;28;19931;-70
2022/11/17 07:24:33;;;;;;;;;;;13.80;99.90;;;;;;5085186;28;19925;-70
2022/11/17 07:26:59;;;;;;;;;;;13.80;99.90;;;;;;5062512;28;19912;-70
2022/11/17 07:29:29;;;;;;;;;;;13.80;99.90;;;;;;5088376;28;19916;-70
2022/11/17 07:31:55;;;;;;;;;;;13.80;99.90;;;;;;5080691;28;19923;-70
2022/11/17 07:34:21;;;;;;;;;;;13.80;99.90;;;;;;5082578;28;19912;-70
2022/11/17 07:36:47;;;;;;;;;;;13.70;99.90;;;;;;5072596;28;19938;-70
2022/11/17 07:39:14;;;;;;;;;;;13.80;99.90;;;;;;5065565;28;19919;-69
2022/11/17 07:41:43;;;;;;;;;;;13.90;99.90;;;;;;5079043;28;19912;-70
2022/11/17 07:44:10;;;;;;;;;;;13.90;99.90;;;;;;5075175;28;19992;-70
2022/11/17 07:46:36;;;;;;;;;;;13.90;99.90;;;;;;5076538;28;19920;-70
2022/11/17 07:49:02;;;;;;;;;;;13.90;99.90;;;;;;5079269;28;19943;-70
2022/11/17 07:51:27;;;;;;;;;;;13.90;99.90;;;;;;5072596;28;19965;-67
2022/11/17 07:53:53;;;;;;;;;;;14.00;99.90;;;;;;5075931;28;19912;-66
2022/11/17 07:56:19;;;;;;;;;;;13.90;99.90;;;;;;5049448;28;19913;-67
2022/11/17 07:59:11;;;;;;;;;;;13.90;99.90;;;;;;5055419;28;19920;-67
2022/11/17 08:01:37;;;;;;;;;;;13.90;99.90;;;;;;5065088;28;19912;-66
2022/11/17 08:04:06;;;;;;;;;;;13.90;99.90;;;;;;5073174;28;19936;-67
2022/11/17 08:06:37;;;;;;;;;;;13.90;99.90;;;;;;5080498;28;19912;-68
2022/11/17 08:09:09;;;;;;;;;;;13.90;99.90;;;;;;5082442;28;19960;-67
2022/11/17 08:11:35;;;;;;;;;;;14.00;99.90;;;;;;5079531;28;19923;-66
2022/11/17 08:14:07;;;;;;;;;;;14.00;99.90;;;;;;5078706;28;20003;-67
2022/11/17 08:16:32;;;;;;;;;;;14.00;99.90;;;;;;5073696;28;20296;-69
2022/11/17 08:18:58;;;;;;;;;;;14.00;99.90;;;;;;5053037;28;19934;-67
2022/11/17 08:21:24;;;;;;;;;;;14.10;99.90;;;;;;5069652;28;20401;-67
2022/11/17 08:23:51;;;;;;;;;;;14.10;99.90;;;;;;5053066;28;20307;-69
2022/11/17 08:26:19;;;;;;;;;;;14.10;99.90;;;;;;5071969;28;19912;-68
2022/11/17 08:28:45;;;;;;;;;;;14.10;99.90;;;;;;5079715;28;20255;-69
2022/11/17 08:31:11;;;;;;;;;;;14.20;99.90;;;;;;5070286;28;19970;-69
2022/11/17 08:33:39;;;;;;;;;;;14.20;99.90;;;;;;5066080;28;19919;-67
2022/11/17 08:36:08;;;;;;;;;;;14.30;99.90;;;;;;5072500;28;19951;-66
2022/11/17 08:38:34;;;;;;;;;;;14.30;99.90;;;;;;5070300;28;20436;-68
2022/11/17 08:41:05;;;;;;;;;;;14.40;99.90;;;;;;5071302;28;19921;-68
2022/11/17 08:43:34;;;;;;;;;;;14.40;99.90;;;;;;5080320;28;19935;-67
2022/11/17 08:46:03;;;;;;;;;;;14.50;99.90;;;;;;5074215;28;19912;-67
2022/11/17 08:48:30;;;;;;;;;;;14.50;99.90;;;;;;5071494;28;19952;-67
2022/11/17 08:50:56;;;;;;;;;;;14.40;99.90;;;;;;5057062;28;19920;-66
2022/11/17 08:53:29;;;;;;;;;;;14.40;99.90;;;;;;5074140;28;19943;-66
2022/11/17 08:55:54;;;;;;;;;;;14.50;99.90;;;;;;5057433;28;19919;-68
2022/11/17 08:58:20;;;;;;;;;;;14.40;99.90;;;;;;5053885;28;20325;-67
2022/11/17 09:00:46;;;;;;;;;;;14.40;99.90;;;;;;5072035;28;19919;-67
2022/11/17 09:03:17;;;;;;;;;;;14.40;99.90;;;;;;5066656;28;19912;-66
2022/11/17 09:05:45;;;;;;;;;;;14.40;99.90;;;;;;5056608;28;19919;-67
2022/11/17 09:08:13;;;;;;;;;;;14.30;99.90;;;;;;5071482;28;19912;-69
2022/11/17 09:10:39;;;;;;;;;;;14.30;99.90;;;;;;5070670;28;19912;-67
2022/11/17 09:13:04;;;;;;;;;;;14.40;99.90;;;;;;5052037;28;19958;-67
2022/11/17 09:15:30;;;;;;;;;;;14.50;99.90;;;;;;5076414;28;19995;-67
2022/11/17 09:17:56;;;;;;;;;;;14.50;99.90;;;;;;5073498;28;20003;-65
2022/11/17 09:20:22;;;;;;;;;;;14.50;99.90;;;;;;5071042;28;20373;-66
2022/11/17 09:22:48;;;;;;;;;;;14.50;99.90;;;;;;5073065;28;19912;-66
2022/11/17 09:25:13;;;;;;;;;;;14.60;99.90;;;;;;5047076;28;19912;-69
2022/11/17 09:27:39;;;;;;;;;;;14.60;99.90;;;;;;5054968;28;20342;-68
2022/11/17 09:30:06;;;;;;;;;;;14.70;99.90;;;;;;5074174;28;19967;-69
2022/11/17 09:32:35;;;;;;;;;;;14.70;99.90;;;;;;5073568;28;19999;-68
2022/11/17 09:35:05;;;;;;;;;;;14.80;99.90;;;;;;5068836;28;19980;-68
2022/11/17 09:37:30;;;;;;;;;;;14.80;99.90;;;;;;5076334;28;19942;-67
2022/11/17 09:39:57;;;;;;;;;;;14.90;99.90;;;;;;5075665;28;19908;-67
2022/11/17 09:42:23;;;;;;;;;;;14.90;99.90;;;;;;5077195;28;20358;-66
2022/11/17 09:45:02;;;;;;;;;;;15.00;99.90;;;;;;5076748;28;19915;-67
2022/11/17 09:47:28;;;;;;;;;;;15.00;99.90;;;;;;5072599;28;20441;-68
2022/11/17 09:50:02;;;;;;;;;;;14.80;99.90;;;;;;5071875;28;20015;-67
2022/11/17 09:52:28;;;;;;;;;;;14.80;99.90;;;;;;5079597;28;19998;-69
2022/11/17 09:55:24;;;;;;;;;;;14.70;99.90;;;;;;5072891;28;19955;-68
2022/11/17 09:58:18;;;;;;;;;;;14.80;99.90;;;;;;5079723;28;19974;-68
2022/11/17 10:00:47;;;;;;;;;;;14.80;99.90;;;;;;5072725;28;20260;-68
2022/11/17 10:03:20;;;;;;;;;;;14.90;99.90;;;;;;5074124;28;19912;-67
2022/11/17 10:05:47;;;;;;;;;;;15.00;99.90;;;;;;5073268;28;20362;-68
2022/11/17 10:08:15;;;;;;;;;;;15.10;99.90;;;;;;5079590;28;20396;-68
2022/11/17 10:10:45;;;;;;;;;;;15.30;99.90;;;;;;5074185;28;19952;-70
2022/11/17 10:13:18;;;;;;;;;;;15.20;99.90;;;;;;5055479;28;20040;-67
2022/11/17 10:15:48;;;;;;;;;;;15.00;99.90;;;;;;5075467;28;19918;-70
2022/11/17 10:18:14;;;;;;;;;;;15.00;99.90;;;;;;5056821;28;19912;-70
2022/11/17 10:20:40;;;;;;;;;;;14.90;99.90;;;;;;5076229;28;19912;-68
2022/11/17 10:23:09;;;;;;;;;;;14.80;99.90;;;;;;5073919;28;19951;-69
2022/11/17 10:25:37;;;;;;;;;;;14.80;99.90;;;;;;5072053;28;19916;-69
2022/11/17 10:28:03;;;;;;;;;;;14.70;99.90;;;;;;5058332;28;19909;-69
2022/11/17 10:30:29;;;;;;;;;;;14.70;99.90;;;;;;5074261;28;20104;-69
2022/11/17 10:32:55;;;;;;;;;;;14.70;99.90;;;;;;5072187;28;19954;-69
2022/11/17 10:35:29;;;;;;;;;;;14.70;99.90;;;;;;5054970;28;20100;-69
2022/11/17 10:37:58;;;;;;;;;;;14.70;99.90;;;;;;5073115;28;19919;-66
2022/11/17 10:40:31;;;;;;;;;;;14.80;99.90;;;;;;5074294;28;19947;-67
2022/11/17 10:43:12;;;;;;;;;;;14.80;99.90;;;;;;5075349;28;19908;-68
2022/11/17 10:45:48;;;;;;;;;;;14.80;99.90;;;;;;5076532;28;20007;-66
2022/11/17 10:48:20;;;;;;;;;;;14.90;99.90;;;;;;5074940;28;19997;-65
2022/11/17 10:51:02;;;;;;;;;;;14.90;99.90;;;;;;5082206;28;20322;-69
2022/11/17 10:53:28;;;;;;;;;;;15.00;99.90;;;;;;5074232;28;20008;-66
2022/11/17 10:55:59;;;;;;;;;;;15.00;99.90;;;;;;5052681;28;20407;-69
2022/11/17 10:58:29;;;;;;;;;;;15.10;99.90;;;;;;5056937;28;19908;-69
2022/11/17 11:01:01;;;;;;;;;;;15.10;99.90;;;;;;5077238;28;19953;-69
2022/11/17 11:03:29;;;;;;;;;;;15.10;99.90;;;;;;5075116;28;19908;-67
2022/11/17 11:05:57;;;;;;;;;;;15.20;99.90;;;;;;5076755;28;20437;-66
2022/11/17 11:08:25;;;;;;;;;;;15.40;99.90;;;;;;5074747;28;19920;-69
2022/11/17 11:10:52;;;;;;;;;;;15.50;99.90;;;;;;5079808;28;19913;-68
2022/11/17 11:13:18;;;;;;;;;;;15.50;99.90;;;;;;5075303;28;20517;-68
2022/11/17 11:15:44;;;;;;;;;;;15.50;99.90;;;;;;5056864;28;19935;-66
2022/11/17 11:18:15;;;;;;;;;;;15.50;99.90;;;;;;5074826;28;19912;-67
2022/11/17 11:20:52;;;;;;;;;;;15.60;99.90;;;;;;5073249;28;19923;-69
2022/11/17 11:23:31;;;;;;;;;;;15.70;99.90;;;;;;5076660;28;19912;-68
2022/11/17 11:26:07;;;;;;;;;;;15.80;99.90;;;;;;5061383;28;20358;-70
2022/11/17 11:28:51;;;;;;;;;;;15.90;99.90;;;;;;5073975;28;19945;-70
2022/11/17 11:31:19;;;;;;;;;;;16.10;99.90;;;;;;5081149;28;19912;-69
2022/11/17 11:33:54;;;;;;;;;;;16.20;99.90;;;;;;5076434;28;19959;-69
2022/11/17 11:36:25;;;;;;;;;;;16.20;99.90;;;;;;5054521;28;19955;-71
2022/11/17 11:38:51;;;;;;;;;;;16.20;99.90;;;;;;5076654;28;19923;-69
2022/11/17 11:41:16;;;;;;;;;;;16.20;99.90;;;;;;5073090;28;19997;-66
2022/11/17 11:43:47;;;;;;;;;;;16.20;99.90;;;;;;5056097;28;19909;-68
2022/11/17 11:46:13;;;;;;;;;;;16.10;99.90;;;;;;5061347;28;19938;-69
2022/11/17 11:48:39;;;;;;;;;;;16.10;99.90;;;;;;5085544;28;19916;-67
2022/11/17 11:51:10;;;;;;;;;;;16.20;99.90;;;;;;5069461;28;19912;-68
2022/11/17 11:54:11;;;;;;;;;;;16.20;99.90;;;;;;5073259;28;19913;-69
2022/11/17 11:56:43;;;;;;;;;;;16.20;99.90;;;;;;4974557;28;20006;-67
2022/11/17 11:59:17;;;;;;;;;;;16.10;99.90;;;;;;5051737;28;19909;-67
2022/11/17 12:01:48;;;;;;;;;;;15.90;99.90;;;;;;5060056;28;19920;-69
2022/11/17 12:04:40;;;;;;;;;;;15.80;99.90;;;;;;5056277;28;19938;-67
2022/11/17 12:07:18;;;;;;;;;;;15.80;99.90;;;;;;5050707;28;19991;-68
2022/11/17 12:09:46;;;;;;;;;;;15.90;99.90;;;;;;5075870;28;20007;-70
2022/11/17 12:12:14;;;;;;;;;;;15.90;99.90;;;;;;5079401;28;19912;-70
2022/11/17 12:15:00;;;;;;;;;;;15.90;99.90;;;;;;5060357;28;20417;-69
2022/11/17 12:17:25;;;;;;;;;;;15.90;99.90;;;;;;5067596;28;19909;-69
2022/11/17 12:19:53;;;;;;;;;;;15.90;99.90;;;;;;5078506;28;19912;-67
2022/11/17 12:22:38;;;;;;;;;;;15.80;99.90;;;;;;5053835;28;19970;-67
2022/11/17 12:25:04;;;;;;;;;;;15.70;99.90;;;;;;5075944;28;19921;-69
2022/11/17 12:27:31;;;;;;;;;;;15.80;99.90;;;;;;5074505;28;19912;-68
2022/11/17 12:29:57;;;;;;;;;;;15.70;99.90;;;;;;5072981;28;20354;-70
2022/11/17 12:32:41;;;;;;;;;;;15.70;99.90;;;;;;5081939;28;19951;-70
2022/11/17 12:35:25;;;;;;;;;;;15.70;99.90;;;;;;5075068;28;19915;-70
2022/11/17 12:38:09;;;;;;;;;;;15.50;99.90;;;;;;5077616;28;19920;-70
2022/11/17 12:40:38;;;;;;;;;;;15.40;99.90;;;;;;5078556;28;19984;-70
2022/11/17 12:43:22;;;;;;;;;;;15.30;99.90;;;;;;5051487;28;19927;-67
2022/11/17 12:45:51;;;;;;;;;;;15.20;99.90;;;;;;5047164;28;19955;-69
2022/11/17 12:48:37;;;;;;;;;;;15.10;99.90;;;;;;5068618;28;19920;-69
2022/11/17 12:51:05;;;;;;;;;;;15.10;99.90;;;;;;5071877;28;19916;-70
2022/11/17 12:53:33;;;;;;;;;;;14.90;99.90;;;;;;5072261;28;19919;-69
2022/11/17 12:56:08;;;;;;;;;;;14.90;99.90;;;;;;5049497;28;19913;-69
2022/11/17 12:58:34;;;;;;;;;;;15.00;99.90;;;;;;5073533;28;19908;-69
2022/11/17 13:01:18;;;;;;;;;;;15.10;99.90;;;;;;5069171;28;20298;-67
2022/11/17 13:03:48;;;;;;;;;;;15.10;99.90;;;;;;5073068;28;19932;-67
2022/11/17 13:06:14;;;;;;;;;;;15.10;99.90;;;;;;5089039;28;19916;-71
2022/11/17 13:08:53;;;;;;;;;;;15.00;99.90;;;;;;5075740;28;19948;-68
2022/11/17 13:11:18;;;;;;;;;;;15.00;99.90;;;;;;5075398;28;19965;-67
2022/11/17 13:13:45;;;;;;;;;;;15.00;99.90;;;;;;5084445;28;19912;-70
2022/11/17 13:16:15;;;;;;;;;;;15.00;99.90;;;;;;5077623;28;19916;-68
2022/11/17 13:18:42;;;;;;;;;;;15.10;99.90;;;;;;5066290;28;20328;-67
2022/11/17 13:21:27;;;;;;;;;;;15.10;99.90;;;;;;5080318;28;20571;-67
2022/11/17 13:23:53;;;;;;;;;;;15.20;99.90;;;;;;5075480;28;19912;-66
2022/11/17 13:26:24;;;;;;;;;;;15.20;99.90;;;;;;5053928;28;19918;-69
2022/11/17 13:29:08;;;;;;;;;;;15.20;99.90;;;;;;5085444;28;19961;-70
2022/11/17 13:31:34;;;;;;;;;;;15.20;99.90;;;;;;5084836;28;19912;-69
2022/11/17 13:33:59;;;;;;;;;;;15.20;99.90;;;;;;5072583;28;19922;-70
2022/11/17 13:36:26;;;;;;;;;;;15.30;99.90;;;;;;5066397;28;19912;-70
2022/11/17 13:38:59;;;;;;;;;;;15.20;99.90;;;;;;5051339;28;20369;-68
2022/11/17 13:41:25;;;;;;;;;;;15.30;99.90;;;;;;5077955;28;19919;-69
2022/11/17 13:43:52;;;;;;;;;;;15.20;99.90;;;;;;5059774;28;20574;-70
2022/11/17 13:46:17;;;;;;;;;;;15.10;99.90;;;;;;5051815;28;20396;-68
2022/11/17 13:48:44;;;;;;;;;;;15.10;99.90;;;;;;5070481;28;20021;-68
2022/11/17 13:51:13;;;;;;;;;;;15.20;99.90;;;;;;5051786;28;19920;-70
2022/11/17 13:53:40;;;;;;;;;;;15.20;99.90;;;;;;5066863;28;20023;-67
2022/11/17 13:56:19;;;;;;;;;;;15.30;99.90;;;;;;5070035;28;19921;-70
2022/11/17 13:58:46;;;;;;;;;;;15.20;99.90;;;;;;5072348;28;19912;-68
2022/11/17 14:01:13;;;;;;;;;;;15.30;99.90;;;;;;5088399;28;19912;-71
2022/11/17 14:03:42;;;;;;;;;;;15.30;99.90;;;;;;5075847;28;19976;-70
2022/11/17 14:06:11;;;;;;;;;;;15.30;99.90;;;;;;5074981;28;20358;-70
2022/11/17 14:08:38;;;;;;;;;;;15.30;99.90;;;;;;5073919;28;19955;-70
2022/11/17 14:11:10;;;;;;;;;;;15.30;99.90;;;;;;5074420;28;19932;-70
2022/11/17 14:13:41;;;;;;;;;;;15.20;99.90;;;;;;5076879;28;20313;-70
2022/11/17 14:16:26;;;;;;;;;;;15.20;99.90;;;;;;5056473;28;19909;-70
2022/11/17 14:18:55;;;;;;;;;;;15.20;99.90;;;;;;5074429;28;19932;-68
2022/11/17 14:21:21;;;;;;;;;;;15.10;99.90;;;;;;5081036;28;19955;-69
2022/11/17 14:23:46;;;;;;;;;;;15.10;99.90;;;;;;5073755;28;19974;-68
2022/11/17 14:26:17;;;;;;;;;;;15.00;99.90;;;;;;5074228;28;19917;-70
2022/11/17 14:28:43;;;;;;;;;;;15.00;99.90;;;;;;5061014;28;19939;-69
2022/11/17 14:31:10;;;;;;;;;;;15.00;99.90;;;;;;5063363;28;19920;-70
2022/11/17 14:33:36;;;;;;;;;;;15.00;99.90;;;;;;5071927;28;19919;-71
2022/11/17 14:36:02;;;;;;;;;;;15.00;99.90;;;;;;5079163;28;20278;-69
2022/11/17 14:38:27;;;;;;;;;;;15.10;99.90;;;;;;5073656;28;19913;-70
2022/11/17 14:40:53;;;;;;;;;;;15.10;99.90;;;;;;5071186;28;20385;-69
2022/11/17 14:43:20;;;;;;;;;;;15.10;99.90;;;;;;5079649;28;19974;-71
2022/11/17 14:45:46;;;;;;;;;;;15.10;99.90;;;;;;5072102;28;19912;-71
2022/11/17 14:48:11;;;;;;;;;;;15.10;99.90;;;;;;5074842;28;19966;-71
2022/11/17 14:50:37;;;;;;;;;;;15.10;99.90;;;;;;5076782;28;19916;-71
2022/11/17 14:53:03;;;;;;;;;;;15.00;99.90;;;;;;5076285;28;19920;-70
2022/11/17 14:55:28;;;;;;;;;;;15.00;99.90;;;;;;5081278;28;19919;-72
2022/11/17 14:57:54;;;;;;;;;;;15.00;99.90;;;;;;5081655;28;20561;-71
2022/11/17 15:00:20;;;;;;;;;;;15.00;99.90;;;;;;5082198;28;19966;-71
2022/11/17 15:02:51;;;;;;;;;;;15.00;99.90;;;;;;5083099;28;20011;-70
2022/11/17 15:05:18;;;;;;;;;;;15.00;99.90;;;;;;5092304;28;19912;-71
2022/11/17 15:07:44;;;;;;;;;;;14.90;99.90;;;;;;5082963;28;19912;-72
2022/11/17 15:10:10;;;;;;;;;;;14.90;99.90;;;;;;5071541;28;19920;-71
2022/11/17 15:12:36;;;;;;;;;;;14.90;99.90;;;;;;5097776;28;19927;-71
2022/11/17 15:15:01;;;;;;;;;;;15.00;99.90;;;;;;5075184;28;20423;-72
2022/11/17 15:17:27;;;;;;;;;;;15.00;99.90;;;;;;5079437;28;19912;-71
2022/11/17 15:19:53;;;;;;;;;;;15.00;99.90;;;;;;5085360;28;19958;-71
2022/11/17 15:22:19;;;;;;;;;;;14.90;99.90;;;;;;5081401;28;19924;-72
2022/11/17 15:24:45;;;;;;;;;;;14.90;99.90;;;;;;5057077;28;20019;-71
2022/11/17 15:27:11;;;;;;;;;;;14.90;99.90;;;;;;5078847;28;19971;-72
2022/11/17 15:29:37;;;;;;;;;;;14.90;99.90;;;;;;5076401;28;19916;-70
2022/11/17 15:32:02;;;;;;;;;;;15.00;99.90;;;;;;5071870;28;19920;-68
2022/11/17 15:34:28;;;;;;;;;;;14.90;99.90;;;;;;5061621;28;19967;-71
2022/11/17 15:36:54;;;;;;;;;;;14.90;99.90;;;;;;5058637;28;20274;-71
2022/11/17 15:39:19;;;;;;;;;;;14.90;99.90;;;;;;5073269;28;19912;-69
2022/11/17 15:41:45;;;;;;;;;;;14.90;99.90;;;;;;5076424;28;19912;-72